createdAt,value
2018-03-19T00:06:26.110Z,13.1
2018-03-19T00:16:24.979Z,12.7
2018-03-19T00:26:24.152Z,12.8
2018-03-19T00:36:23.638Z,13
2018-03-19T00:46:22.635Z,12.8
2018-03-19T00:56:21.830Z,13.1
2018-03-19T01:06:20.981Z,12.9
2018-03-19T01:16:20.267Z,13
2018-03-19T01:26:19.401Z,13.2
2018-03-19T01:36:18.696Z,12.5
2018-03-19T01:46:17.928Z,12.9
2018-03-19T01:56:17.267Z,12.9
2018-03-19T02:06:16.276Z,12.5
2018-03-19T02:16:15.532Z,12.8
2018-03-19T02:26:14.966Z,12.8
2018-03-19T02:36:13.867Z,12.6
2018-03-19T02:46:13.075Z,12.8
2018-03-19T02:56:12.324Z,13.1
2018-03-19T03:06:11.644Z,13.1
2018-03-19T03:16:10.708Z,12.9
2018-03-19T03:26:09.958Z,12.7
2018-03-19T03:36:09.140Z,13.2
2018-03-19T03:46:08.517Z,12.4
2018-03-19T03:56:07.614Z,13
2018-03-19T04:06:07.030Z,12.9
2018-03-19T04:16:06.033Z,13.1
2018-03-19T04:26:05.205Z,12.5
2018-03-19T04:36:04.453Z,12.8
2018-03-19T04:46:03.640Z,12.9
2018-03-19T04:56:03.090Z,12.4
2018-03-19T05:06:02.009Z,13.1
2018-03-19T05:16:01.530Z,12.9
2018-03-19T05:26:00.478Z,13.1
2018-03-19T05:35:59.658Z,12.9
2018-03-19T05:45:59.242Z,13.2
2018-03-19T05:55:58.273Z,12.8
2018-03-19T06:05:57.302Z,13.1
2018-03-19T06:15:56.591Z,12.8
2018-03-19T06:25:55.703Z,12.6
2018-03-19T06:35:54.992Z,12.4
2018-03-19T06:45:54.263Z,12.6
2018-03-19T06:55:53.488Z,12.9
2018-03-19T07:05:52.585Z,13.7
2018-03-19T07:15:51.897Z,13.3
2018-03-19T07:25:51.293Z,14
2018-03-19T07:35:50.227Z,14
2018-03-19T07:45:49.431Z,14.4
2018-03-19T07:55:48.643Z,14.1
2018-03-19T08:05:48.235Z,14.5
2018-03-19T08:15:47.014Z,14
2018-03-19T08:25:46.223Z,14.7
2018-03-19T08:35:45.424Z,14.5
2018-03-19T08:45:44.678Z,14.6
2018-03-19T08:55:44.224Z,14.3
2018-03-19T09:05:43.146Z,14
2018-03-19T09:15:42.625Z,14.7
2018-03-19T09:25:41.770Z,14.4
2018-03-19T09:35:40.677Z,14
2018-03-19T09:45:39.968Z,14.5
2018-03-19T09:55:39.339Z,14.4
2018-03-19T10:05:38.319Z,14.3
2018-03-19T10:15:37.595Z,14.2
2018-03-19T10:25:36.848Z,14.2
2018-03-19T10:35:36.070Z,14.1
2018-03-19T10:45:35.271Z,14.5
2018-03-19T10:55:34.472Z,14.4
2018-03-19T11:05:33.563Z,13.8
2018-03-19T11:15:32.851Z,14
2018-03-19T11:25:31.981Z,14
2018-03-19T11:35:31.177Z,14.6
2018-03-19T11:45:30.407Z,14.5
2018-03-19T11:55:29.638Z,14.1
2018-03-19T12:05:28.942Z,14.2
2018-03-19T12:15:28.084Z,14.4
2018-03-19T12:25:27.516Z,14.1
2018-03-19T12:35:26.456Z,13.7
2018-03-19T12:45:25.731Z,13
2018-03-19T12:55:25.174Z,13
2018-03-19T13:05:24.211Z,13.3
2018-03-19T13:15:23.350Z,13.3
2018-03-19T13:25:22.482Z,12.9
2018-03-19T13:35:21.699Z,13.2
2018-03-19T13:45:21.007Z,12.7
2018-03-19T13:55:20.172Z,13.2
2018-03-19T14:05:19.494Z,13.1
2018-03-19T14:15:18.516Z,13.1
2018-03-19T14:25:17.961Z,12.8
2018-03-19T14:35:17.072Z,13.2
2018-03-19T14:45:16.514Z,13.2
2018-03-19T14:55:15.369Z,12.7
2018-03-19T15:05:14.606Z,13.1
2018-03-19T15:15:13.818Z,13.1
2018-03-19T15:25:12.986Z,12.6
2018-03-19T15:35:12.239Z,12.6
2018-03-19T15:45:11.398Z,13
2018-03-19T15:55:10.648Z,12.5
2018-03-19T16:05:09.940Z,12.7
2018-03-19T16:15:09.400Z,13.2
2018-03-19T16:25:08.370Z,12.7
2018-03-19T16:35:07.491Z,13.2
2018-03-19T16:45:06.651Z,12.5
2018-03-19T16:55:05.868Z,13.1
2018-03-19T17:05:05.208Z,12.7
2018-03-19T17:15:04.328Z,12.9
2018-03-19T17:25:03.772Z,12.6
2018-03-19T17:35:02.779Z,12.8
2018-03-19T17:45:02.268Z,12.8
2018-03-19T17:55:01.196Z,12.9
2018-03-19T18:05:00.367Z,12.5
2018-03-19T18:14:59.626Z,12.9
2018-03-19T18:24:58.833Z,12.9
2018-03-19T18:34:58.136Z,13
2018-03-19T18:44:57.543Z,12.4
2018-03-19T18:54:56.789Z,12.7
2018-03-19T19:04:55.757Z,13.1
2018-03-19T19:14:54.893Z,12.9
2018-03-19T19:24:54.627Z,13.1
2018-03-19T19:34:53.351Z,12.9
2018-03-19T19:44:52.520Z,12.8
2018-03-19T19:54:51.828Z,12.7
2018-03-19T20:04:50.895Z,13.2
2018-03-19T20:14:50.386Z,13.2
2018-03-19T20:24:49.327Z,13.2
2018-03-19T20:34:48.819Z,12.5
2018-03-19T20:44:47.886Z,12.9
2018-03-19T20:54:47.046Z,12.6
2018-03-19T21:04:46.194Z,13.1
2018-03-19T21:14:45.467Z,12.7
2018-03-19T21:24:44.867Z,12.7
2018-03-19T21:34:44.151Z,13.1
2018-03-19T21:44:43.322Z,12.8
2018-03-19T21:54:42.268Z,12.7
2018-03-19T22:04:41.708Z,12.7
2018-03-19T22:14:40.638Z,12.8
2018-03-19T22:24:39.890Z,12.8
2018-03-19T22:34:39.058Z,12.8
2018-03-19T22:44:38.315Z,12.4
2018-03-19T22:54:37.484Z,12.9
2018-03-19T23:04:37.052Z,12.9
2018-03-19T23:14:35.898Z,12.9
2018-03-19T23:24:35.108Z,12.7
2018-03-19T23:34:34.534Z,13.2
2018-03-19T23:44:33.567Z,13
2018-03-19T23:54:33.094Z,13.1
